createdAt,value
2022-11-13T00:01:17.136Z,19.70
2022-11-13T00:03:44.442Z,19.87
2022-11-13T00:06:12.508Z,20.40
2022-11-13T00:08:39.853Z,20.17
2022-11-13T00:11:18.732Z,20.87
2022-11-13T00:13:47.122Z,19.60
2022-11-13T00:16:20.561Z,18.37
2022-11-13T00:18:48.398Z,20.70
2022-11-13T00:21:22.827Z,19.00
2022-11-13T00:23:50.489Z,19.93
2022-11-13T00:26:24.100Z,19.23
2022-11-13T00:28:57.041Z,19.70
2022-11-13T00:31:24.153Z,21.83
2022-11-13T00:36:38.421Z,22.90
2022-11-13T00:39:05.312Z,22.40
2022-11-13T00:41:32.245Z,19.30
2022-11-13T00:43:59.111Z,21.70
2022-11-13T00:46:25.990Z,20.10
2022-11-13T00:48:52.973Z,21.50
2022-11-13T00:51:19.965Z,20.47
2022-11-13T00:53:48.020Z,19.97
2022-11-13T00:56:14.951Z,19.10
2022-11-13T00:58:41.927Z,20.50
2022-11-13T01:01:16.064Z,19.23
2022-11-13T01:03:43.244Z,19.53
2022-11-13T01:06:27.462Z,21.90
2022-11-13T01:08:56.556Z,20.40
2022-11-13T01:11:27.841Z,21.67
2022-11-13T01:13:56.544Z,20.60
2022-11-13T01:16:28.195Z,20.70
2022-11-13T01:18:56.546Z,20.50
2022-11-13T01:21:26.548Z,20.47
2022-11-13T01:23:54.674Z,20.93
2022-11-13T01:26:28.590Z,20.30
2022-11-13T01:28:56.858Z,22.23
2022-11-13T01:31:28.647Z,21.23
2022-11-13T01:33:57.288Z,20.20
2022-11-13T01:36:28.394Z,21.53
2022-11-13T01:38:56.611Z,21.20
2022-11-13T01:41:33.917Z,20.60
2022-11-13T01:44:01.935Z,20.23
2022-11-13T01:46:33.673Z,22.67
2022-11-13T01:49:15.904Z,22.50
2022-11-13T01:52:02.277Z,22.13
2022-11-13T01:54:36.235Z,22.90
2022-11-13T01:57:04.821Z,21.27
2022-11-13T01:59:39.561Z,19.70
2022-11-13T02:02:07.422Z,22.47
2022-11-13T02:04:34.688Z,22.73
2022-11-13T02:07:06.626Z,21.57
2022-11-13T02:09:43.313Z,21.30
2022-11-13T02:12:20.690Z,19.67
2022-11-13T02:14:52.779Z,21.43
2022-11-13T02:17:31.994Z,18.43
2022-11-13T02:20:02.375Z,18.00
2022-11-13T02:23:08.580Z,18.37
2022-11-13T02:25:36.927Z,17.80
2022-11-13T02:28:03.889Z,17.97
2022-11-13T02:30:34.624Z,19.73
2022-11-13T02:33:01.816Z,18.07
2022-11-13T02:35:35.927Z,19.17
2022-11-13T02:38:05.942Z,20.37
2022-11-13T02:40:33.943Z,21.10
2022-11-13T02:43:00.891Z,19.73
2022-11-13T02:45:27.917Z,19.13
2022-11-13T02:47:55.005Z,19.53
2022-11-13T02:50:22.030Z,20.23
2022-11-13T02:52:49.010Z,21.40
2022-11-13T02:55:16.028Z,21.13
2022-11-13T02:57:42.910Z,22.07
2022-11-13T03:00:14.068Z,23.30
2022-11-13T03:02:41.798Z,20.80
2022-11-13T03:05:12.503Z,21.47
2022-11-13T03:07:41.313Z,21.70
2022-11-13T03:10:09.658Z,22.80
2022-11-13T03:12:37.165Z,20.30
2022-11-13T03:15:05.765Z,23.67
2022-11-13T03:17:33.017Z,22.40
2022-11-13T03:20:00.295Z,22.57
2022-11-13T03:22:27.937Z,22.60
2022-11-13T03:24:54.876Z,22.60
2022-11-13T03:27:22.393Z,22.87
2022-11-13T03:29:49.322Z,21.77
2022-11-13T03:32:16.433Z,22.27
2022-11-13T03:34:43.465Z,22.83
2022-11-13T03:37:10.329Z,23.13
2022-11-13T03:39:37.180Z,21.70
2022-11-13T03:42:04.285Z,22.90
2022-11-13T03:44:31.200Z,21.57
2022-11-13T03:46:58.065Z,21.23
2022-11-13T03:49:25.117Z,24.20
2022-11-13T03:51:52.060Z,24.40
2022-11-13T03:54:19.098Z,23.10
2022-11-13T03:56:45.966Z,22.03
2022-11-13T03:59:12.916Z,25.13
2022-11-13T04:01:39.890Z,23.50
2022-11-13T04:04:06.911Z,25.17
2022-11-13T04:06:33.839Z,23.63
2022-11-13T04:09:00.832Z,25.60
2022-11-13T04:11:27.974Z,25.73
2022-11-13T04:13:55.035Z,23.07
2022-11-13T04:16:22.047Z,22.23
2022-11-13T04:18:48.938Z,24.27
2022-11-13T04:21:15.809Z,24.77
2022-11-13T04:23:42.785Z,23.03
2022-11-13T04:26:09.632Z,22.03
2022-11-13T04:28:37.599Z,23.83
2022-11-13T04:31:06.479Z,23.43
2022-11-13T04:33:33.364Z,22.33
2022-11-13T04:36:01.096Z,22.37
2022-11-13T04:38:28.303Z,24.53
2022-11-13T04:41:15.637Z,21.83
2022-11-13T04:43:42.495Z,19.00
2022-11-13T04:46:09.385Z,20.50
2022-11-13T04:48:36.353Z,20.73
2022-11-13T04:51:03.387Z,21.57
2022-11-13T04:53:30.294Z,20.83
2022-11-13T04:55:57.187Z,20.27
2022-11-13T04:58:24.094Z,18.50
2022-11-13T05:00:51.009Z,19.10
2022-11-13T05:03:17.938Z,17.33
2022-11-13T05:05:44.893Z,15.93
2022-11-13T05:08:12.775Z,16.10
2022-11-13T05:10:39.835Z,15.20
2022-11-13T05:13:06.726Z,16.37
2022-11-13T05:15:33.668Z,14.63
2022-11-13T05:18:00.560Z,13.00
2022-11-13T05:20:27.401Z,13.97
2022-11-13T05:22:54.289Z,12.27
2022-11-13T05:25:21.206Z,12.93
2022-11-13T05:27:48.210Z,14.03
2022-11-13T05:30:15.822Z,13.70
2022-11-13T05:32:42.895Z,13.87
2022-11-13T05:35:09.856Z,12.07
2022-11-13T05:37:37.790Z,12.77
2022-11-13T05:40:05.576Z,14.83
2022-11-13T05:42:32.555Z,14.03
2022-11-13T05:44:59.413Z,13.13
2022-11-13T05:47:26.325Z,12.50
2022-11-13T05:49:53.215Z,14.57
2022-11-13T05:52:20.226Z,13.27
2022-11-13T05:54:47.133Z,16.60
2022-11-13T05:57:14.000Z,13.77
2022-11-13T05:59:40.875Z,13.27
2022-11-13T06:02:07.994Z,10.50
2022-11-13T06:04:34.963Z,9.80
2022-11-13T06:07:01.915Z,11.13
2022-11-13T06:09:28.787Z,10.83
2022-11-13T06:11:55.777Z,11.27
2022-11-13T06:14:22.625Z,10.90
2022-11-13T06:16:50.105Z,14.30
2022-11-13T06:19:16.949Z,11.90
2022-11-13T06:21:43.866Z,14.70
2022-11-13T06:24:12.790Z,11.33
2022-11-13T06:26:40.110Z,11.73
2022-11-13T06:29:10.731Z,12.00
2022-11-13T06:31:38.096Z,11.90
2022-11-13T06:34:06.275Z,11.27
2022-11-13T06:36:36.370Z,12.53
2022-11-13T06:39:08.071Z,11.13
2022-11-13T06:41:35.184Z,12.87
2022-11-13T06:44:03.319Z,12.67
2022-11-13T06:46:31.674Z,10.50
2022-11-13T06:48:58.802Z,11.70
2022-11-13T06:51:29.308Z,14.10
2022-11-13T06:53:57.022Z,13.70
2022-11-13T06:56:24.358Z,13.00
2022-11-13T06:58:51.274Z,12.97
2022-11-13T07:01:21.519Z,14.13
2022-11-13T07:03:48.929Z,13.70
2022-11-13T07:06:22.805Z,13.20
2022-11-13T07:08:50.170Z,11.40
2022-11-13T07:11:23.278Z,12.77
2022-11-13T07:13:50.644Z,12.67
2022-11-13T07:16:19.290Z,12.70
2022-11-13T07:18:53.782Z,13.90
2022-11-13T07:21:22.455Z,14.40
2022-11-13T07:23:50.235Z,13.17
2022-11-13T07:26:17.744Z,13.20
2022-11-13T07:28:44.957Z,12.60
2022-11-13T07:31:14.502Z,14.27
2022-11-13T07:33:41.736Z,15.67
2022-11-13T07:36:09.770Z,14.83
2022-11-13T07:38:37.072Z,13.10
2022-11-13T07:41:04.146Z,14.83
2022-11-13T07:43:31.408Z,14.80
2022-11-13T07:45:59.588Z,15.07
2022-11-13T07:48:30.505Z,15.13
2022-11-13T07:51:01.514Z,17.30
2022-11-13T07:53:28.545Z,16.60
2022-11-13T07:55:55.513Z,17.57
2022-11-13T07:58:22.400Z,17.77
2022-11-13T08:00:49.277Z,18.07
2022-11-13T08:03:17.405Z,18.97
2022-11-13T08:05:44.614Z,19.47
2022-11-13T08:08:15.526Z,19.23
2022-11-13T08:10:43.007Z,19.03
2022-11-13T08:13:11.527Z,17.10
2022-11-13T08:15:38.862Z,16.90
2022-11-13T08:18:06.470Z,18.60
2022-11-13T08:20:34.085Z,17.30
2022-11-13T08:23:03.471Z,17.30
2022-11-13T08:25:33.427Z,18.53
2022-11-13T08:28:00.671Z,17.73
2022-11-13T08:30:29.218Z,18.20
2022-11-13T08:32:56.231Z,16.80
2022-11-13T08:35:29.174Z,17.80
2022-11-13T08:38:03.390Z,17.50
2022-11-13T08:40:30.762Z,17.17
2022-11-13T08:43:03.490Z,17.30
2022-11-13T08:45:31.102Z,18.70
2022-11-13T08:48:03.006Z,19.17
2022-11-13T08:50:32.271Z,18.57
2022-11-13T08:53:01.121Z,18.13
2022-11-13T08:55:28.662Z,15.70
2022-11-13T08:58:02.573Z,15.17
2022-11-13T09:00:31.959Z,17.10
2022-11-13T09:03:00.536Z,17.50
2022-11-13T09:05:28.255Z,17.67
2022-11-13T09:08:00.785Z,18.40
2022-11-13T09:10:28.425Z,18.00
2022-11-13T09:13:04.493Z,17.70
2022-11-13T09:15:32.659Z,17.90
2022-11-13T09:18:02.055Z,15.80
2022-11-13T09:20:31.074Z,16.40
2022-11-13T09:23:03.978Z,16.90
2022-11-13T09:25:37.329Z,16.33
2022-11-13T09:28:06.639Z,17.73
2022-11-13T09:30:34.362Z,16.97
2022-11-13T09:33:01.981Z,17.37
2022-11-13T09:35:36.176Z,16.93
2022-11-13T09:38:13.032Z,17.27
2022-11-13T09:41:18.018Z,17.47
2022-11-13T09:43:59.777Z,18.30
2022-11-13T09:46:39.557Z,17.43
2022-11-13T09:49:16.573Z,17.07
2022-11-13T09:51:55.738Z,16.70
2022-11-13T09:54:23.350Z,16.10
2022-11-13T09:57:28.285Z,15.80
2022-11-13T10:00:02.285Z,16.90
2022-11-13T10:02:49.380Z,16.27
2022-11-13T10:05:40.556Z,15.63
2022-11-13T10:08:13.880Z,16.87
2022-11-13T10:10:55.874Z,16.17
2022-11-13T10:13:32.821Z,18.10
2022-11-13T10:16:21.138Z,15.40
2022-11-13T10:18:50.721Z,14.43
2022-11-13T10:21:35.259Z,16.47
2022-11-13T10:24:14.462Z,15.50
2022-11-13T10:26:41.527Z,16.47
2022-11-13T10:29:15.344Z,15.77
2022-11-13T10:31:51.727Z,13.63
2022-11-13T10:34:19.783Z,15.23
2022-11-13T10:37:20.198Z,14.63
2022-11-13T10:39:47.501Z,16.83
2022-11-13T10:42:31.825Z,14.80
2022-11-13T10:45:00.996Z,15.30
2022-11-13T10:48:01.841Z,17.73
2022-11-13T10:50:31.071Z,14.60
2022-11-13T10:52:59.000Z,15.67
2022-11-13T10:55:35.979Z,14.70
2022-11-13T10:58:13.621Z,13.90
2022-11-13T11:00:41.513Z,15.03
2022-11-13T11:03:20.819Z,15.00
2022-11-13T11:05:57.308Z,14.83
2022-11-13T11:08:31.387Z,15.43
2022-11-13T11:11:35.653Z,14.80
2022-11-13T11:14:31.618Z,15.70
2022-11-13T11:17:00.681Z,12.83
2022-11-13T11:19:31.091Z,12.60
2022-11-13T11:22:16.573Z,13.33
2022-11-13T11:25:02.217Z,11.90
2022-11-13T11:27:37.450Z,13.20
2022-11-13T11:30:22.054Z,13.33
2022-11-13T11:33:07.062Z,13.70
2022-11-13T11:35:44.462Z,13.27
2022-11-13T11:38:24.315Z,13.30
2022-11-13T11:40:59.599Z,12.27
2022-11-13T11:44:02.009Z,13.17
2022-11-13T11:46:30.097Z,12.60
2022-11-13T11:49:01.048Z,12.30
2022-11-13T11:51:37.107Z,12.50
2022-11-13T11:54:28.401Z,11.93
2022-11-13T11:57:10.517Z,12.50
2022-11-13T12:00:05.968Z,12.47
2022-11-13T12:03:10.646Z,12.40
2022-11-13T12:06:04.512Z,10.93
2022-11-13T12:09:16.144Z,12.47
2022-11-13T12:11:53.464Z,10.50
2022-11-13T12:14:47.733Z,10.70
2022-11-13T12:18:03.142Z,9.50
2022-11-13T12:20:44.879Z,9.70
2022-11-13T12:23:48.041Z,10.40
2022-11-13T12:26:28.789Z,10.33
2022-11-13T12:30:00.072Z,8.93
2022-11-13T12:33:05.281Z,10.67
2022-11-13T12:35:32.316Z,9.50
2022-11-13T12:38:08.173Z,9.27
2022-11-13T12:41:13.103Z,9.80
2022-11-13T12:44:01.629Z,8.13
2022-11-13T12:46:49.626Z,9.17
2022-11-13T12:49:37.319Z,9.30
2022-11-13T12:52:16.552Z,8.57
2022-11-13T12:54:44.086Z,8.90
2022-11-13T12:57:14.012Z,8.60
2022-11-13T12:59:45.994Z,8.80
2022-11-13T13:02:27.975Z,7.53
2022-11-13T13:05:14.484Z,8.30
2022-11-13T13:08:11.648Z,8.77
2022-11-13T13:11:10.051Z,9.10
2022-11-13T13:13:48.799Z,8.80
2022-11-13T13:16:27.209Z,8.40
2022-11-13T13:19:23.279Z,9.20
2022-11-13T13:21:50.181Z,9.10
2022-11-13T13:24:38.071Z,8.70
2022-11-13T13:27:27.704Z,9.10
2022-11-13T13:29:54.816Z,9.47
2022-11-13T13:32:52.831Z,9.53
2022-11-13T13:35:47.326Z,8.97
2022-11-13T13:38:26.334Z,9.03
2022-11-13T13:41:45.327Z,8.90
2022-11-13T13:44:28.681Z,9.03
2022-11-13T13:46:57.477Z,9.67
2022-11-13T13:49:27.008Z,9.67
2022-11-13T13:51:56.383Z,9.10
2022-11-13T13:54:28.054Z,7.73
2022-11-13T13:56:57.274Z,8.27
2022-11-13T13:59:32.196Z,8.37
2022-11-13T14:02:02.165Z,8.90
2022-11-13T14:04:34.785Z,8.43
2022-11-13T14:07:02.914Z,8.83
2022-11-13T14:09:31.233Z,8.40
2022-11-13T14:12:09.800Z,7.80
2022-11-13T14:14:40.001Z,8.27
2022-11-13T14:17:09.843Z,8.27
2022-11-13T14:19:37.148Z,8.50
2022-11-13T14:22:06.536Z,8.50
2022-11-13T14:24:57.259Z,9.40
2022-11-13T14:27:27.376Z,9.07
2022-11-13T14:30:00.781Z,9.60
2022-11-13T14:32:33.258Z,10.50
2022-11-13T14:35:02.946Z,9.10
2022-11-13T14:37:38.088Z,10.20
2022-11-13T14:40:31.051Z,11.00
2022-11-13T14:43:02.098Z,12.13
2022-11-13T14:45:32.358Z,11.57
2022-11-13T14:48:04.215Z,12.43
2022-11-13T14:50:36.560Z,11.73
2022-11-13T14:53:06.973Z,11.80
2022-11-13T14:55:39.105Z,11.50
2022-11-13T14:58:05.998Z,12.07
2022-11-13T15:00:36.471Z,12.30
2022-11-13T15:03:05.967Z,12.70
2022-11-13T15:05:33.022Z,12.70
2022-11-13T15:08:00.325Z,14.10
2022-11-13T15:10:29.850Z,14.73
2022-11-13T15:12:56.781Z,13.27
2022-11-13T15:15:28.495Z,13.60
2022-11-13T15:17:55.616Z,14.27
2022-11-13T15:20:30.371Z,15.40
2022-11-13T15:22:59.724Z,15.20
2022-11-13T15:25:27.238Z,14.03
2022-11-13T15:27:54.163Z,13.87
2022-11-13T15:30:21.054Z,14.27
2022-11-13T15:32:53.176Z,13.87
2022-11-13T15:35:20.634Z,13.20
2022-11-13T15:37:47.586Z,13.40
2022-11-13T15:40:15.262Z,14.60
2022-11-13T15:42:43.719Z,16.23
2022-11-13T15:45:16.307Z,14.57
2022-11-13T15:47:43.501Z,16.23
2022-11-13T15:50:15.168Z,15.07
2022-11-13T15:52:47.008Z,13.93
2022-11-13T15:55:28.674Z,16.37
2022-11-13T15:57:57.778Z,15.10
2022-11-13T16:00:27.679Z,17.00
2022-11-13T16:02:56.786Z,14.43
2022-11-13T16:05:26.356Z,15.37
2022-11-13T16:07:54.251Z,15.20
2022-11-13T16:10:25.154Z,16.57
2022-11-13T16:12:53.245Z,14.47
2022-11-13T16:15:20.465Z,14.00
2022-11-13T16:17:53.941Z,14.37
2022-11-13T16:20:20.991Z,12.50
2022-11-13T16:22:48.286Z,14.30
2022-11-13T16:25:19.721Z,13.00
2022-11-13T16:27:47.637Z,11.60
2022-11-13T16:30:21.749Z,13.10
2022-11-13T16:32:48.990Z,12.97
2022-11-13T16:35:18.541Z,13.20
2022-11-13T16:37:45.850Z,13.83
2022-11-13T16:40:22.354Z,13.20
2022-11-13T16:42:52.715Z,12.73
2022-11-13T16:45:21.530Z,13.77
2022-11-13T16:47:50.628Z,13.10
2022-11-13T16:50:26.813Z,13.20
2022-11-13T16:52:53.745Z,14.37
2022-11-13T16:55:20.664Z,17.60
2022-11-13T16:57:47.618Z,15.17
2022-11-13T17:00:17.770Z,17.43
2022-11-13T17:02:44.991Z,14.67
2022-11-13T17:05:17.117Z,13.03
2022-11-13T17:07:44.019Z,10.90
2022-11-13T17:10:30.796Z,12.70
2022-11-13T17:12:59.727Z,14.50
2022-11-13T17:15:26.803Z,14.57
2022-11-13T17:17:58.247Z,14.67
2022-11-13T17:20:25.695Z,12.57
2022-11-13T17:22:52.643Z,14.90
2022-11-13T17:25:20.579Z,19.37
2022-11-13T17:27:47.571Z,18.33
2022-11-13T17:30:14.999Z,16.30
2022-11-13T17:32:41.936Z,15.80
2022-11-13T17:35:11.948Z,15.23
2022-11-13T17:37:39.488Z,15.97
2022-11-13T17:40:07.625Z,13.93
2022-11-13T17:42:34.610Z,14.10
2022-11-13T17:45:01.514Z,27.40
2022-11-13T17:47:29.423Z,25.50
2022-11-13T17:50:01.173Z,24.13
2022-11-13T17:52:30.934Z,25.63
2022-11-13T17:54:57.920Z,24.57
2022-11-13T17:57:27.106Z,48.83
2022-11-13T17:59:54.248Z,22.63
2022-11-13T18:02:21.215Z,21.80
2022-11-13T18:04:48.137Z,20.90
2022-11-13T18:07:15.100Z,23.10
2022-11-13T18:09:42.019Z,20.23
2022-11-13T18:12:08.949Z,21.27
2022-11-13T18:14:35.818Z,20.90
2022-11-13T18:17:02.704Z,19.57
2022-11-13T18:19:29.918Z,19.63
2022-11-13T18:21:56.787Z,18.67
2022-11-13T18:24:23.775Z,17.43
2022-11-13T18:26:50.738Z,17.60
2022-11-13T18:29:17.780Z,15.60
2022-11-13T18:31:45.087Z,16.10
2022-11-13T18:34:16.674Z,13.90
2022-11-13T18:36:44.084Z,15.73
2022-11-13T18:39:16.444Z,15.07
2022-11-13T18:41:43.834Z,14.50
2022-11-13T18:44:11.001Z,14.40
2022-11-13T18:46:38.048Z,13.50
2022-11-13T18:49:05.215Z,14.73
2022-11-13T18:51:35.510Z,16.70
2022-11-13T18:54:09.405Z,17.10
2022-11-13T18:56:37.011Z,14.77
2022-11-13T18:59:04.037Z,16.73
2022-11-13T19:01:33.728Z,16.60
2022-11-13T19:04:22.303Z,16.70
2022-11-13T19:06:50.818Z,16.50
2022-11-13T19:09:18.400Z,16.33
2022-11-13T19:11:45.739Z,15.80
2022-11-13T19:14:17.925Z,15.57
2022-11-13T19:16:45.164Z,16.53
2022-11-13T19:19:21.409Z,18.30
2022-11-13T19:21:48.953Z,16.60
2022-11-13T19:24:16.395Z,15.53
2022-11-13T19:26:44.881Z,18.03
2022-11-13T19:29:12.434Z,19.03
2022-11-13T19:31:39.693Z,18.60
2022-11-13T19:34:08.425Z,20.53
2022-11-13T19:36:37.045Z,21.23
2022-11-13T19:39:04.922Z,19.03
2022-11-13T19:41:32.066Z,20.00
2022-11-13T19:44:00.351Z,21.57
2022-11-13T19:46:28.378Z,21.93
2022-11-13T19:48:55.266Z,19.20
2022-11-13T19:51:24.661Z,20.80
2022-11-13T19:53:58.076Z,23.70
2022-11-13T19:56:28.250Z,21.20
2022-11-13T19:58:56.038Z,21.03
2022-11-13T20:01:26.529Z,21.60
2022-11-13T20:03:59.557Z,19.83
2022-11-13T20:06:28.250Z,20.40
2022-11-13T20:08:55.476Z,20.37
2022-11-13T20:11:22.379Z,21.77
2022-11-13T20:13:49.396Z,21.83
2022-11-13T20:16:17.572Z,21.87
2022-11-13T20:18:44.759Z,22.13
2022-11-13T20:21:11.715Z,22.23
2022-11-13T20:23:39.333Z,21.30
2022-11-13T20:26:10.454Z,19.97
2022-11-13T20:28:37.350Z,23.57
2022-11-13T20:31:16.346Z,22.53
2022-11-13T20:33:43.748Z,22.57
2022-11-13T20:36:11.198Z,22.23
2022-11-13T20:38:38.323Z,20.80
2022-11-13T20:41:07.825Z,21.30
2022-11-13T20:43:34.695Z,22.90
2022-11-13T20:46:04.043Z,20.60
2022-11-13T20:48:31.214Z,22.57
2022-11-13T20:51:22.141Z,23.57
2022-11-13T20:53:49.770Z,22.87
2022-11-13T20:56:19.359Z,23.40
2022-11-13T20:58:46.894Z,25.00
2022-11-13T21:01:20.649Z,23.70
2022-11-13T21:03:48.433Z,24.23
2022-11-13T21:06:19.525Z,24.43
2022-11-13T21:08:47.207Z,22.27
2022-11-13T21:11:21.982Z,24.57
2022-11-13T21:13:49.825Z,23.90
2022-11-13T21:16:18.132Z,23.20
2022-11-13T21:18:46.189Z,22.10
2022-11-13T21:21:19.313Z,25.50
2022-11-13T21:23:47.501Z,23.77
2022-11-13T21:26:15.266Z,23.60
2022-11-13T21:28:42.230Z,22.70
2022-11-13T21:31:18.753Z,22.93
2022-11-13T21:33:47.254Z,22.63
2022-11-13T21:36:18.879Z,21.63
2022-11-13T21:38:46.012Z,22.03
2022-11-13T21:41:24.562Z,21.30
2022-11-13T21:44:03.336Z,21.97
2022-11-13T21:46:37.963Z,22.10
2022-11-13T21:49:10.586Z,24.13
2022-11-13T21:51:40.037Z,21.20
2022-11-13T21:54:07.874Z,22.50
2022-11-13T21:56:37.935Z,21.90
2022-11-13T21:59:05.609Z,23.30
2022-11-13T22:01:38.150Z,22.00
2022-11-13T22:04:07.267Z,21.93
2022-11-13T22:06:39.702Z,21.30
2022-11-13T22:09:17.247Z,20.90
2022-11-13T22:11:44.986Z,21.50
2022-11-13T22:14:12.264Z,21.73
2022-11-13T22:16:42.593Z,20.50
2022-11-13T22:19:22.669Z,19.40
2022-11-13T22:21:54.118Z,20.77
2022-11-13T22:24:21.238Z,22.27
2022-11-13T22:26:48.470Z,21.90
2022-11-13T22:29:15.706Z,21.10
2022-11-13T22:31:44.853Z,21.13
2022-11-13T22:34:11.868Z,19.63
2022-11-13T22:36:38.806Z,19.20
2022-11-13T22:39:06.414Z,19.70
2022-11-13T22:41:35.153Z,20.57
2022-11-13T22:44:06.242Z,19.00
2022-11-13T22:46:35.709Z,19.70
2022-11-13T22:49:04.966Z,19.40
2022-11-13T22:51:38.668Z,19.10
2022-11-13T22:54:12.798Z,19.53
2022-11-13T22:56:41.435Z,18.53
2022-11-13T22:59:11.394Z,19.87
2022-11-13T23:01:40.972Z,19.27
2022-11-13T23:04:11.861Z,18.07
2022-11-13T23:06:38.878Z,19.37
2022-11-13T23:09:06.514Z,18.70
2022-11-13T23:11:42.341Z,18.50
2022-11-13T23:14:13.050Z,17.60
2022-11-13T23:16:40.041Z,18.17
2022-11-13T23:19:07.003Z,17.70
2022-11-13T23:21:34.315Z,18.70
2022-11-13T23:24:01.601Z,17.00
2022-11-13T23:26:29.237Z,17.67
2022-11-13T23:28:57.085Z,16.03
2022-11-13T23:31:24.545Z,16.30
2022-11-13T23:33:51.546Z,18.23
2022-11-13T23:36:18.620Z,17.73
2022-11-13T23:38:45.917Z,18.50
2022-11-13T23:41:13.152Z,17.40
2022-11-13T23:46:27.123Z,17.07
2022-11-13T23:48:54.117Z,16.60
2022-11-13T23:51:21.026Z,18.57
2022-11-13T23:53:48.039Z,17.13
2022-11-13T23:56:15.098Z,17.23
2022-11-13T23:58:42.245Z,17.90
